Terminal Aerodrome Forecast
Issued by NWS

Home | Current Version | Previous Version | Text Only | Print | Product List | Glossary On
Versions: 1 2 3 4 5 6 7 8 9 10 11 12 13 14 15 16 17 18 19 20 21 22 23 24
969
FTUS43 KICT 290520
TAFRSL
TAF
KRSL 290520Z 2906/3006 04017G25KT 5SM -SHRA BR OVC008
      TEMPO 2906/2910 3SM SHRA BR OVC004
     FM291000 03019G28KT 5SM -SHRA BR OVC006
      TEMPO 2910/2913 2SM -SHRA BR OVC004
     FM291500 02018G27KT 5SM -SHRA BR OVC007=

USA.gov is the U.S. government's official web portal to all federal, state and local government web resources and services.